Terminal Aerodrome Forecast
Issued by NWS

Home | Current Version | Previous Version | Graphics & Text | Print | Product List | Glossary On
Versions: 1 2 3 4 5 6 7 8 9 10 11 12 13 14 15 16 17 18 19 20 21
000
FTUS43 KOAX 162320
TAFCDR
TAF
KCDR 162320Z 1700/1724 34007KT P6SM BKN050 BKN100
     FM170200 VRB04KT P6SM SCT100
     FM170800 VRB03KT P6SM BKN015 OVC050
     FM171700 18015G25KT P6SM SCT050 BKN100=

USA.gov is the U.S. government's official web portal to all federal, state and local government web resources and services.